Time;durP1;ratioP1;P1;durP2;ratioP2;P2;SDS_P1;SDS_P2;PMS_P1;PMS_P2;Temp;Humidity;BMP_temperature;BMP_pressure;BME280_temperature;BME280_humidity;BME280_pressure;Samples;Min_cycle;Max_cycle;Signal;HPM_P1;HPM_P2
2022/09/18 00:01:30;;;;;;;8.17;1.77;;;9.70;99.90;;;;;;5045607;28;20901;-82
2022/09/18 00:03:58;;;;;;;7.87;1.70;;;9.70;99.90;;;;;;5040935;28;20230;-81
2022/09/18 00:06:28;;;;;;;9.67;1.60;;;9.60;99.90;;;;;;5041572;28;20230;-81
2022/09/18 00:08:56;;;;;;;8.23;2.10;;;9.60;99.90;;;;;;5063661;28;20230;-81
2022/09/18 00:11:28;;;;;;;9.87;1.80;;;9.60;99.90;;;;;;5049752;28;20628;-81
2022/09/18 00:13:55;;;;;;;7.33;1.63;;;9.60;99.90;;;;;;5044486;28;20899;-81
2022/09/18 00:16:24;;;;;;;13.67;1.97;;;9.60;99.90;;;;;;5061433;28;20625;-81
2022/09/18 00:18:50;;;;;;;8.37;1.57;;;9.60;99.90;;;;;;5046924;28;20229;-82
2022/09/18 00:21:20;;;;;;;8.60;1.97;;;9.50;99.90;;;;;;5045384;28;20222;-82
2022/09/18 00:23:47;;;;;;;8.97;1.90;;;9.50;99.90;;;;;;5047985;28;20906;-81
2022/09/18 00:26:16;;;;;;;10.67;1.80;;;9.50;99.90;;;;;;5061919;28;20237;-82
2022/09/18 00:28:45;;;;;;;8.70;2.27;;;9.40;99.90;;;;;;5050687;28;20236;-82
2022/09/18 00:31:14;;;;;;;7.17;1.77;;;9.40;99.90;;;;;;5063934;28;20932;-82
2022/09/18 00:33:42;;;;;;;11.40;2.37;;;9.30;99.90;;;;;;5049155;28;20222;-81
2022/09/18 00:36:11;;;;;;;10.70;1.90;;;9.30;99.90;;;;;;5045348;28;20237;-81
2022/09/18 00:38:38;;;;;;;9.13;2.07;;;9.30;99.90;;;;;;5063373;28;20225;-81
2022/09/18 00:41:08;;;;;;;7.20;1.63;;;9.30;99.90;;;;;;5062231;28;20817;-81
2022/09/18 00:43:37;;;;;;;7.23;1.97;;;9.30;99.90;;;;;;5045226;28;20227;-82
2022/09/18 00:46:08;;;;;;;11.67;2.00;;;9.30;99.90;;;;;;5044229;28;20732;-81
2022/09/18 00:48:42;;;;;;;10.67;2.63;;;9.30;99.90;;;;;;5059632;28;20231;-82
2022/09/18 00:51:09;;;;;;;8.97;2.20;;;9.40;99.90;;;;;;5045318;28;20236;-81
2022/09/18 00:53:37;;;;;;;14.53;2.30;;;9.40;99.90;;;;;;5045251;28;20231;-81
2022/09/18 00:56:05;;;;;;;10.93;2.27;;;9.40;99.90;;;;;;5060546;28;20227;-81
2022/09/18 00:58:32;;;;;;;7.93;1.63;;;9.40;99.90;;;;;;5037499;28;20230;-81
2022/09/18 01:01:00;;;;;;;9.00;1.87;;;9.50;99.90;;;;;;5058427;28;20242;-81
2022/09/18 01:03:28;;;;;;;9.00;1.77;;;9.40;99.90;;;;;;5049328;28;20227;-81
2022/09/18 01:06:06;;;;;;;8.67;2.07;;;9.50;99.90;;;;;;5062843;28;20218;-81
2022/09/18 01:08:41;;;;;;;10.97;1.90;;;9.50;99.90;;;;;;5059175;28;20226;-81
2022/09/18 01:11:21;;;;;;;8.50;1.90;;;9.60;99.90;;;;;;5059642;28;20226;-82
2022/09/18 01:13:58;;;;;;;10.50;2.13;;;9.60;99.90;;;;;;5060924;28;20236;-82
2022/09/18 01:16:28;;;;;;;12.10;1.87;;;9.60;99.90;;;;;;5044714;28;20325;-82
2022/09/18 01:19:05;;;;;;;11.77;2.10;;;9.60;99.90;;;;;;5046239;28;20219;-82
2022/09/18 01:21:38;;;;;;;11.73;2.47;;;9.60;99.90;;;;;;5061933;28;20253;-82
2022/09/18 01:24:33;;;;;;;7.67;2.10;;;9.70;99.90;;;;;;5046409;28;20225;-82
2022/09/18 01:27:03;;;;;;;10.10;2.10;;;9.60;99.90;;;;;;5051294;28;20455;-82
2022/09/18 01:29:43;;;;;;;10.93;1.83;;;9.70;99.90;;;;;;5058468;28;20229;-81
2022/09/18 01:32:18;;;;;;;10.00;1.93;;;9.70;99.90;;;;;;5045755;28;20251;-81
2022/09/18 01:34:47;;;;;;;11.30;1.90;;;9.70;99.90;;;;;;5063583;28;20233;-81
2022/09/18 01:37:19;;;;;;;10.10;1.77;;;9.70;99.90;;;;;;5051722;28;20626;-81
2022/09/18 01:39:52;;;;;;;6.93;1.63;;;9.70;99.90;;;;;;5045237;28;20230;-81
2022/09/18 01:42:22;;;;;;;10.10;1.83;;;9.80;99.90;;;;;;5042712;28;20231;-81
2022/09/18 01:44:52;;;;;;;8.63;1.70;;;9.70;99.90;;;;;;5052190;28;20717;-81
2022/09/18 01:47:24;;;;;;;7.53;2.30;;;9.70;99.90;;;;;;5045484;28;20590;-82
2022/09/18 01:49:54;;;;;;;12.73;1.97;;;9.70;99.90;;;;;;5049247;28;20275;-82
2022/09/18 01:52:26;;;;;;;11.33;2.30;;;9.70;99.90;;;;;;5052903;28;20620;-82
2022/09/18 01:54:56;;;;;;;12.30;2.27;;;9.60;99.90;;;;;;5068636;28;20237;-82
2022/09/18 01:57:27;;;;;;;7.03;1.90;;;9.60;99.90;;;;;;5062247;28;20330;-82
2022/09/18 02:00:00;;;;;;;6.03;1.33;;;9.60;99.90;;;;;;5048514;28;20248;-81
2022/09/18 02:02:31;;;;;;;7.63;1.73;;;9.60;99.90;;;;;;5041956;28;20219;-83
2022/09/18 02:05:02;;;;;;;6.80;1.70;;;9.50;99.90;;;;;;5050377;28;20280;-81
2022/09/18 02:07:37;;;;;;;6.37;1.67;;;9.50;99.90;;;;;;5048941;28;20232;-81
2022/09/18 02:10:05;;;;;;;8.60;1.97;;;9.50;99.90;;;;;;5046015;28;20242;-81
2022/09/18 02:12:37;;;;;;;12.07;2.07;;;9.50;99.90;;;;;;5052647;28;20227;-81
2022/09/18 02:15:12;;;;;;;8.63;1.70;;;9.40;99.90;;;;;;5040706;28;20799;-81
2022/09/18 02:17:50;;;;;;;10.77;1.90;;;9.40;99.90;;;;;;5046067;28;20218;-81
2022/09/18 02:20:23;;;;;;;7.83;2.60;;;9.40;99.90;;;;;;5049831;28;20221;-80
2022/09/18 02:22:55;;;;;;;10.03;2.80;;;9.30;99.90;;;;;;5039938;28;21071;-82
2022/09/18 02:25:27;;;;;;;9.13;2.40;;;9.20;99.90;;;;;;5052240;28;20762;-82
2022/09/18 02:27:54;;;;;;;12.23;1.87;;;9.30;99.90;;;;;;5047763;28;20816;-82
2022/09/18 02:30:23;;;;;;;9.00;2.37;;;9.30;99.90;;;;;;5061947;28;20996;-82
2022/09/18 02:32:53;;;;;;;8.50;1.97;;;9.20;99.90;;;;;;5047156;28;20822;-81
2022/09/18 02:35:20;;;;;;;8.17;2.00;;;9.20;99.90;;;;;;5045851;28;20301;-81
2022/09/18 02:37:57;;;;;;;11.37;1.97;;;9.20;99.90;;;;;;5070148;28;20706;-81
2022/09/18 02:40:37;;;;;;;8.13;1.90;;;9.20;99.90;;;;;;5048479;28;20353;-81
2022/09/18 02:43:16;;;;;;;7.80;2.07;;;9.20;99.90;;;;;;5047588;28;20213;-81
2022/09/18 02:45:50;;;;;;;9.00;2.10;;;9.10;99.90;;;;;;5056395;28;20265;-81
2022/09/18 02:48:34;;;;;;;10.17;2.30;;;9.10;99.90;;;;;;5044411;28;20262;-82
2022/09/18 02:51:09;;;;;;;9.10;2.30;;;9.10;99.90;;;;;;5051054;28;20224;-83
2022/09/18 02:53:43;;;;;;;7.77;1.77;;;9.10;99.90;;;;;;5045123;28;20222;-83
2022/09/18 02:56:14;;;;;;;8.37;2.10;;;9.10;99.90;;;;;;5050443;28;20298;-82
2022/09/18 02:58:46;;;;;;;10.40;2.20;;;9.00;99.90;;;;;;5045076;28;20698;-82
2022/09/18 03:01:16;;;;;;;11.10;2.07;;;9.10;99.90;;;;;;5046863;28;20218;-82
2022/09/18 03:03:43;;;;;;;9.07;1.93;;;9.10;99.90;;;;;;5045310;28;20215;-82
2022/09/18 03:06:12;;;;;;;8.37;2.10;;;9.10;99.90;;;;;;5048539;28;20589;-83
2022/09/18 03:08:40;;;;;;;9.10;2.40;;;9.10;99.90;;;;;;5041730;28;20237;-83
2022/09/18 03:11:06;;;;;;;8.87;1.83;;;9.10;99.90;;;;;;5047241;28;20228;-83
2022/09/18 03:13:34;;;;;;;13.43;2.20;;;9.00;99.90;;;;;;5046558;28;21006;-83
2022/09/18 03:16:03;;;;;;;7.80;2.23;;;9.00;99.90;;;;;;5050610;28;20320;-83
2022/09/18 03:18:31;;;;;;;12.00;2.20;;;9.00;99.90;;;;;;5047895;28;20682;-83
2022/09/18 03:20:59;;;;;;;10.73;1.93;;;9.00;99.90;;;;;;5045878;28;20329;-83
2022/09/18 03:23:26;;;;;;;7.10;2.03;;;8.90;99.90;;;;;;5046303;28;20707;-82
2022/09/18 03:26:00;;;;;;;12.73;2.40;;;8.90;99.90;;;;;;5056874;28;20249;-83
2022/09/18 03:28:27;;;;;;;8.53;1.60;;;8.80;99.90;;;;;;5047229;28;20329;-83
2022/09/18 03:30:54;;;;;;;8.97;1.77;;;8.80;99.90;;;;;;5052033;28;20229;-83
2022/09/18 03:33:20;;;;;;;9.83;2.37;;;8.70;99.90;;;;;;5049233;28;20222;-83
2022/09/18 03:35:48;;;;;;;9.20;1.70;;;8.70;99.90;;;;;;5048981;28;20235;-83
2022/09/18 03:38:15;;;;;;;11.80;2.13;;;8.60;99.90;;;;;;5066648;28;20466;-83
2022/09/18 03:40:43;;;;;;;11.63;2.07;;;8.60;99.90;;;;;;5044937;28;20215;-83
2022/09/18 03:43:11;;;;;;;9.20;1.60;;;8.60;99.90;;;;;;5048867;28;20439;-83
2022/09/18 03:45:38;;;;;;;8.70;1.70;;;8.60;99.90;;;;;;5062027;28;20229;-83
2022/09/18 03:48:06;;;;;;;8.23;1.20;;;8.60;99.90;;;;;;5048315;28;20294;-83
2022/09/18 03:50:33;;;;;;;5.93;1.50;;;8.60;99.90;;;;;;5044973;28;20229;-83
2022/09/18 03:53:02;;;;;;;7.30;1.83;;;8.70;99.90;;;;;;5047425;28;20319;-82
2022/09/18 03:55:41;;;;;;;7.03;1.63;;;8.70;99.90;;;;;;5050711;28;20225;-82
2022/09/18 03:58:27;;;;;;;6.17;1.70;;;8.70;99.90;;;;;;5065487;28;20268;-82
2022/09/18 04:01:15;;;;;;;7.87;1.80;;;8.70;99.90;;;;;;5042022;28;20231;-83
2022/09/18 04:04:00;;;;;;;6.73;1.83;;;8.70;99.90;;;;;;5067220;28;20220;-83
2022/09/18 04:06:47;;;;;;;6.57;1.30;;;8.60;99.90;;;;;;5049509;28;20599;-83
2022/09/18 04:09:44;;;;;;;7.33;1.43;;;8.60;99.90;;;;;;5044307;28;20219;-82
2022/09/18 04:12:11;;;;;;;7.57;1.53;;;8.60;99.90;;;;;;5050285;28;20217;-82
2022/09/18 04:14:39;;;;;;;8.73;1.80;;;8.50;99.90;;;;;;5048244;28;20232;-83
2022/09/18 04:17:05;;;;;;;9.20;1.93;;;8.50;99.90;;;;;;5047466;28;20227;-82
2022/09/18 04:19:32;;;;;;;7.23;2.10;;;8.40;99.90;;;;;;5045638;28;20323;-83
2022/09/18 04:21:59;;;;;;;10.97;2.37;;;8.40;99.90;;;;;;5065482;28;20609;-82
2022/09/18 04:24:26;;;;;;;8.00;1.63;;;8.40;99.90;;;;;;5048307;28;20237;-82
2022/09/18 04:26:54;;;;;;;9.23;1.57;;;8.40;99.90;;;;;;5067319;28;20233;-81
2022/09/18 04:29:23;;;;;;;6.17;1.60;;;8.40;99.90;;;;;;5067145;28;20236;-81
2022/09/18 04:31:50;;;;;;;7.93;1.90;;;8.40;99.90;;;;;;5066549;28;20714;-83
2022/09/18 04:34:19;;;;;;;7.17;1.73;;;8.40;99.90;;;;;;5067510;28;20284;-82
2022/09/18 04:36:47;;;;;;;8.87;1.17;;;8.40;99.90;;;;;;5069195;28;20259;-82
2022/09/18 04:39:14;;;;;;;7.27;1.80;;;8.40;99.90;;;;;;5067848;28;20326;-83
2022/09/18 04:41:44;;;;;;;6.20;1.60;;;8.40;99.90;;;;;;5068626;28;20252;-82
2022/09/18 04:44:12;;;;;;;6.20;1.70;;;8.40;99.90;;;;;;5069788;28;20229;-82
2022/09/18 04:46:39;;;;;;;7.47;1.30;;;8.40;99.90;;;;;;5067950;28;20229;-82
2022/09/18 04:49:06;;;;;;;12.43;2.17;;;8.40;99.90;;;;;;5068450;28;20241;-82
2022/09/18 04:51:32;;;;;;;9.23;1.73;;;8.40;99.90;;;;;;5072623;28;20652;-82
2022/09/18 04:53:59;;;;;;;11.80;1.73;;;8.40;99.90;;;;;;5070991;28;20320;-81
2022/09/18 04:56:26;;;;;;;5.97;1.50;;;8.40;99.90;;;;;;5049262;28;20259;-81
2022/09/18 04:58:53;;;;;;;6.83;1.33;;;8.50;99.90;;;;;;5052560;28;20679;-84
2022/09/18 05:01:21;;;;;;;8.73;1.30;;;8.50;99.90;;;;;;5051527;28;20308;-86
2022/09/18 05:03:48;;;;;;;6.33;1.47;;;8.50;99.90;;;;;;5046925;28;20221;-86
2022/09/18 05:06:23;;;;;;;8.70;1.40;;;8.50;99.90;;;;;;5067264;28;20600;-85
2022/09/18 05:08:50;;;;;;;5.10;1.13;;;8.50;99.90;;;;;;5050571;28;20304;-81
2022/09/18 05:11:18;;;;;;;8.17;1.50;;;8.50;99.90;;;;;;5049839;28;20241;-80
2022/09/18 05:13:48;;;;;;;5.77;1.47;;;8.50;99.90;;;;;;5052418;28;20746;-82
2022/09/18 05:16:15;;;;;;;6.77;2.03;;;8.60;99.90;;;;;;5061213;28;20220;-82
2022/09/18 05:18:50;;;;;;;6.07;1.30;;;8.60;99.90;;;;;;5050974;28;20220;-81
2022/09/18 05:21:17;;;;;;;4.73;1.47;;;8.50;99.90;;;;;;5050801;28;20226;-81
2022/09/18 05:23:45;;;;;;;7.03;1.30;;;8.50;99.90;;;;;;5050899;28;20235;-81
2022/09/18 05:26:12;;;;;;;6.07;1.53;;;8.50;99.90;;;;;;5050939;28;20232;-81
2022/09/18 05:28:39;;;;;;;5.87;1.50;;;8.50;99.90;;;;;;5069984;28;20234;-81
2022/09/18 05:31:08;;;;;;;5.70;1.10;;;8.50;99.90;;;;;;5050568;28;20812;-82
2022/09/18 05:33:43;;;;;;;7.53;1.60;;;8.60;99.90;;;;;;5052230;28;20819;-81
2022/09/18 05:36:13;;;;;;;6.23;1.33;;;8.60;99.90;;;;;;5050753;28;20232;-81
2022/09/18 05:38:41;;;;;;;7.87;1.70;;;8.60;99.90;;;;;;5051280;28;20301;-81
2022/09/18 05:41:09;;;;;;;5.67;1.30;;;8.60;99.90;;;;;;5058708;28;20216;-81
2022/09/18 05:43:36;;;;;;;6.50;1.73;;;8.70;99.90;;;;;;5051353;28;20237;-81
2022/09/18 05:46:06;;;;;;;8.43;1.60;;;8.70;99.90;;;;;;5050888;28;20300;-80
2022/09/18 05:48:53;;;;;;;9.17;1.60;;;8.70;99.90;;;;;;5068611;28;20226;-80
2022/09/18 05:51:21;;;;;;;7.77;1.80;;;8.70;99.90;;;;;;5068591;28;20243;-80
2022/09/18 05:53:48;;;;;;;9.30;1.73;;;8.70;99.90;;;;;;5067156;28;20782;-80
2022/09/18 05:56:35;;;;;;;5.83;1.60;;;8.70;99.90;;;;;;5054736;28;20230;-80
2022/09/18 05:59:02;;;;;;;7.30;1.40;;;8.70;99.90;;;;;;5051098;28;20776;-79
2022/09/18 06:01:29;;;;;;;4.67;1.70;;;8.70;99.90;;;;;;5049624;28;20966;-80
2022/09/18 06:04:16;;;;;;;6.87;1.60;;;8.70;99.90;;;;;;5053900;28;20738;-81
2022/09/18 06:06:50;;;;;;;5.17;1.40;;;8.80;99.90;;;;;;5051331;28;20230;-79
2022/09/18 06:09:17;;;;;;;6.93;1.63;;;8.80;99.90;;;;;;5050413;28;20260;-80
2022/09/18 06:11:44;;;;;;;6.33;1.67;;;8.80;99.90;;;;;;5053656;28;20227;-80
2022/09/18 06:14:10;;;;;;;9.60;1.67;;;8.80;99.90;;;;;;5049302;28;20252;-80
2022/09/18 06:16:37;;;;;;;7.50;1.80;;;8.80;99.90;;;;;;5068579;28;20242;-80
2022/09/18 06:19:06;;;;;;;7.60;1.87;;;8.80;99.90;;;;;;5050133;28;20721;-81
2022/09/18 06:21:33;;;;;;;9.40;1.77;;;8.90;99.90;;;;;;5059179;28;20901;-83
2022/09/18 06:24:02;;;;;;;5.43;1.90;;;8.90;99.90;;;;;;5048134;28;20277;-82
2022/09/18 06:26:37;;;;;;;7.20;1.50;;;8.90;99.90;;;;;;5049003;28;20233;-82
2022/09/18 06:29:05;;;;;;;8.43;1.50;;;8.90;99.90;;;;;;5045458;28;20230;-83
2022/09/18 06:31:40;;;;;;;7.27;2.00;;;9.00;99.90;;;;;;5051321;28;20315;-82
2022/09/18 06:34:09;;;;;;;7.17;1.30;;;9.00;99.90;;;;;;5049259;28;20712;-82
2022/09/18 06:36:36;;;;;;;4.70;1.57;;;9.10;99.90;;;;;;5055550;28;20679;-81
2022/09/18 06:39:20;;;;;;;6.57;1.57;;;9.10;99.90;;;;;;5052000;28;20221;-82
2022/09/18 06:41:53;;;;;;;8.60;1.73;;;9.10;99.90;;;;;;5048668;28;20234;-80
2022/09/18 06:44:31;;;;;;;7.07;1.87;;;9.10;99.90;;;;;;5047373;28;20226;-81
2022/09/18 06:47:03;;;;;;;6.80;1.40;;;9.10;99.90;;;;;;5044876;28;20225;-82
2022/09/18 06:49:38;;;;;;;7.00;1.60;;;9.10;99.90;;;;;;5051432;28;20225;-80
2022/09/18 06:52:04;;;;;;;9.20;1.90;;;9.10;99.90;;;;;;5054104;28;20221;-81
2022/09/18 06:54:34;;;;;;;7.67;1.83;;;9.10;99.90;;;;;;5061824;28;20226;-81
2022/09/18 06:57:02;;;;;;;8.20;1.60;;;9.10;99.90;;;;;;5046231;28;20225;-82
2022/09/18 06:59:31;;;;;;;6.80;1.53;;;9.10;99.90;;;;;;5042274;28;20309;-81
2022/09/18 07:01:57;;;;;;;9.33;1.87;;;9.20;99.90;;;;;;5048854;28;20226;-81
2022/09/18 07:04:57;;;;;;;6.60;1.70;;;9.30;99.90;;;;;;5053701;28;20229;-81
2022/09/18 07:07:24;;;;;;;9.27;1.53;;;9.40;99.90;;;;;;5047920;28;20361;-79
2022/09/18 07:09:53;;;;;;;6.30;1.70;;;9.40;99.90;;;;;;5056837;28;20233;-80
2022/09/18 07:12:34;;;;;;;6.87;1.53;;;9.40;99.90;;;;;;5045744;28;20233;-79
2022/09/18 07:15:03;;;;;;;8.67;1.90;;;9.30;99.90;;;;;;5049351;28;20226;-80
2022/09/18 07:17:30;;;;;;;8.67;1.80;;;9.30;99.90;;;;;;5065373;28;20229;-80
2022/09/18 07:19:57;;;;;;;10.03;2.47;;;9.30;99.90;;;;;;5065370;28;20240;-80
2022/09/18 07:22:34;;;;;;;15.33;2.13;;;9.30;99.90;;;;;;5066419;28;20233;-81
2022/09/18 07:25:05;;;;;;;6.27;1.90;;;9.30;99.90;;;;;;5058238;28;20435;-82
2022/09/18 07:27:32;;;;;;;10.57;2.20;;;9.30;99.90;;;;;;5050061;28;20235;-81
2022/09/18 07:29:59;;;;;;;8.10;1.73;;;9.40;99.90;;;;;;5048868;28;20248;-82
2022/09/18 07:32:27;;;;;;;6.77;2.03;;;9.40;99.90;;;;;;5046443;28;20233;-82
2022/09/18 07:34:54;;;;;;;7.90;2.33;;;9.50;99.90;;;;;;5044281;28;20238;-82
2022/09/18 07:37:26;;;;;;;8.53;2.13;;;9.60;99.90;;;;;;5044077;28;20782;-82
2022/09/18 07:40:12;;;;;;;8.90;2.40;;;9.70;99.90;;;;;;5042612;28;20228;-83
2022/09/18 07:42:51;;;;;;;6.47;2.07;;;9.80;99.90;;;;;;5063698;28;20321;-82
2022/09/18 07:45:18;;;;;;;7.23;2.33;;;9.90;99.90;;;;;;5061325;28;20233;-82
2022/09/18 07:47:45;;;;;;;7.47;1.80;;;10.10;99.90;;;;;;5060334;28;20338;-82
2022/09/18 07:50:14;;;;;;;10.67;2.30;;;10.10;99.90;;;;;;5045984;28;20230;-80
2022/09/18 07:52:48;;;;;;;9.97;2.40;;;10.20;99.90;;;;;;5039119;28;20360;-82
2022/09/18 07:55:18;;;;;;;13.97;2.20;;;10.30;99.90;;;;;;5044801;28;20236;-82
2022/09/18 07:57:45;;;;;;;10.77;2.00;;;10.30;99.90;;;;;;5044530;28;20227;-82
2022/09/18 08:00:26;;;;;;;6.10;1.77;;;10.40;99.90;;;;;;5045438;28;20716;-82
2022/09/18 08:03:01;;;;;;;8.70;1.60;;;10.50;99.90;;;;;;5030806;28;20238;-83
2022/09/18 08:05:48;;;;;;;8.07;2.67;;;10.60;99.90;;;;;;5048966;28;20658;-83
2022/09/18 08:08:15;;;;;;;9.07;2.27;;;10.70;99.90;;;;;;5032509;28;20951;-83
2022/09/18 08:11:13;;;;;;;7.90;2.07;;;10.80;99.90;;;;;;4961223;28;20234;-84
2022/09/18 08:13:54;;;;;;;8.83;2.00;;;10.90;99.90;;;;;;5031246;28;20237;-83
2022/09/18 08:16:54;;;;;;;5.03;1.60;;;11.00;99.90;;;;;;5003829;28;20231;-83
2022/09/18 08:19:39;;;;;;;10.27;2.00;;;11.20;99.90;;;;;;5031567;28;20746;-84
2022/09/18 08:22:25;;;;;;;6.03;1.53;;;11.40;99.90;;;;;;5048774;28;20362;-83
2022/09/18 08:24:55;;;;;;;7.33;1.87;;;11.70;99.90;;;;;;5034878;28;20230;-82
2022/09/18 08:27:23;;;;;;;8.20;2.10;;;12.00;99.90;;;;;;5035835;28;20227;-82
2022/09/18 08:29:51;;;;;;;6.97;1.60;;;12.30;99.90;;;;;;5036014;28;20219;-83
2022/09/18 08:32:18;;;;;;;7.40;2.03;;;12.60;99.90;;;;;;5033928;28;20264;-83
2022/09/18 08:34:45;;;;;;;7.57;1.80;;;12.90;99.90;;;;;;5035029;28;20322;-83
2022/09/18 08:37:14;;;;;;;7.93;2.33;;;13.20;99.90;;;;;;5034494;28;20230;-83
2022/09/18 08:39:59;;;;;;;6.00;1.93;;;13.50;99.90;;;;;;5053694;28;20384;-83
2022/09/18 08:42:41;;;;;;;8.70;2.23;;;14.10;99.90;;;;;;5035536;28;20221;-84
2022/09/18 08:45:31;;;;;;;9.73;1.90;;;14.60;99.90;;;;;;5035150;28;20253;-84
2022/09/18 08:48:05;;;;;;;5.37;1.70;;;15.10;99.90;;;;;;5035618;28;20782;-83
2022/09/18 08:50:41;;;;;;;8.07;2.10;;;15.50;99.90;;;;;;5032576;28;20233;-85
2022/09/18 08:53:16;;;;;;;6.70;1.87;;;15.80;99.90;;;;;;5046693;28;20219;-85
2022/09/18 08:56:03;;;;;;;6.53;1.60;;;15.70;99.90;;;;;;5030782;28;20241;-84
2022/09/18 08:58:56;;;;;;;5.97;1.67;;;15.50;99.90;;;;;;5048650;28;20238;-83
2022/09/18 09:01:32;;;;;;;5.80;1.50;;;15.00;99.90;;;;;;5046822;28;20234;-82
2022/09/18 09:04:12;;;;;;;8.03;1.50;;;14.50;99.90;;;;;;5030446;28;20324;-82
2022/09/18 09:06:58;;;;;;;6.17;1.97;;;14.10;99.90;;;;;;5049494;28;20673;-82
2022/09/18 09:09:41;;;;;;;4.53;1.70;;;13.60;99.90;;;;;;5032951;28;20572;-83
2022/09/18 09:12:18;;;;;;;6.60;1.50;;;13.30;99.90;;;;;;5032587;28;20256;-82
2022/09/18 09:15:09;;;;;;;8.20;1.63;;;13.10;99.90;;;;;;5033155;28;20233;-82
2022/09/18 09:17:40;;;;;;;6.77;2.00;;;13.20;99.90;;;;;;5031714;28;20250;-82
2022/09/18 09:20:20;;;;;;;23.13;3.23;;;13.40;99.90;;;;;;5031780;28;20237;-83
2022/09/18 09:22:53;;;;;;;7.33;1.73;;;13.80;99.90;;;;;;5032306;28;20227;-83
2022/09/18 09:25:25;;;;;;;6.27;1.70;;;14.30;99.90;;;;;;5032073;28;20285;-83
2022/09/18 09:28:14;;;;;;;5.97;1.43;;;14.80;99.90;;;;;;5048272;28;20246;-84
2022/09/18 09:31:15;;;;;;;4.40;1.53;;;15.20;99.90;;;;;;5060210;28;20224;-81
2022/09/18 09:34:24;;;;;;;5.33;1.40;;;15.50;99.90;;;;;;4987228;28;20216;-80
2022/09/18 09:37:13;;;;;;;8.77;1.40;;;15.90;99.90;;;;;;4988171;28;20317;-80
2022/09/18 09:39:44;;;;;;;4.40;1.80;;;16.20;99.90;;;;;;5037894;28;20348;-80
2022/09/18 09:42:16;;;;;;;5.13;1.40;;;16.30;99.90;;;;;;5049215;28;20221;-80
2022/09/18 09:44:49;;;;;;;5.53;1.83;;;16.20;99.90;;;;;;5049062;28;20320;-79
2022/09/18 09:47:30;;;;;;;5.20;1.23;;;16.20;99.90;;;;;;5063632;28;20277;-81
2022/09/18 09:50:09;;;;;;;5.20;1.33;;;16.10;99.90;;;;;;5050419;28;20224;-81
2022/09/18 09:52:38;;;;;;;6.37;1.20;;;16.20;99.90;;;;;;5048223;28;20312;-80
2022/09/18 09:55:20;;;;;;;4.37;1.43;;;16.40;99.90;;;;;;5068771;28;20220;-81
2022/09/18 09:57:58;;;;;;;3.27;1.30;;;16.70;99.90;;;;;;5040879;28;20230;-81
2022/09/18 10:00:27;;;;;;;4.97;1.50;;;17.10;99.90;;;;;;5051791;28;20241;-82
2022/09/18 10:03:20;;;;;;;6.37;1.77;;;17.40;99.90;;;;;;5047073;28;20237;-81
2022/09/18 10:05:53;;;;;;;4.37;1.27;;;17.80;99.90;;;;;;5056755;28;20230;-82
2022/09/18 10:08:23;;;;;;;4.80;1.20;;;18.10;99.90;;;;;;5048923;28;20225;-82
2022/09/18 10:10:56;;;;;;;4.17;1.30;;;18.40;99.90;;;;;;5048855;28;20714;-82
2022/09/18 10:13:27;;;;;;;4.27;1.50;;;18.60;99.70;;;;;;5052382;28;20602;-82
2022/09/18 10:16:01;;;;;;;3.23;1.10;;;18.80;99.90;;;;;;5063373;28;20323;-82
2022/09/18 10:18:34;;;;;;;4.70;1.43;;;19.00;99.80;;;;;;5051675;28;20298;-82
2022/09/18 10:21:07;;;;;;;6.50;1.40;;;19.10;98.90;;;;;;5045346;28;20230;-82
2022/09/18 10:23:38;;;;;;;4.93;1.70;;;19.20;98.60;;;;;;5066720;28;20288;-80
2022/09/18 10:26:06;;;;;;;6.80;1.43;;;19.30;98.10;;;;;;5049896;28;20227;-82
2022/09/18 10:28:33;;;;;;;6.03;1.30;;;19.30;97.70;;;;;;5054876;28;20389;-82
2022/09/18 10:31:04;;;;;;;3.77;1.20;;;19.30;97.50;;;;;;5049587;28;20746;-82
2022/09/18 10:33:38;;;;;;;5.70;1.17;;;19.40;97.30;;;;;;5051046;28;20226;-80
2022/09/18 10:36:22;;;;;;;5.27;1.37;;;19.40;96.20;;;;;;5053139;28;20282;-81
2022/09/18 10:38:50;;;;;;;5.07;1.30;;;19.50;95.40;;;;;;5046274;28;20281;-82
2022/09/18 10:41:32;;;;;;;4.47;1.70;;;19.60;95.50;;;;;;5049678;28;20235;-82
2022/09/18 10:44:19;;;;;;;2.80;1.10;;;19.60;95.00;;;;;;5046393;28;20297;-82
2022/09/18 10:46:54;;;;;;;5.13;1.30;;;19.70;93.90;;;;;;5063411;28;20235;-82
2022/09/18 10:49:25;;;;;;;3.87;1.40;;;19.80;94.00;;;;;;5047878;28;20218;-82
2022/09/18 10:52:21;;;;;;;3.57;1.13;;;19.80;93.20;;;;;;5049322;28;20338;-81
2022/09/18 10:55:16;;;;;;;2.57;1.23;;;19.80;92.90;;;;;;5047929;28;20782;-82
2022/09/18 10:58:03;;;;;;;4.67;1.27;;;19.70;93.00;;;;;;5041864;28;20411;-82
2022/09/18 11:00:51;;;;;;;5.67;1.83;;;19.50;92.50;;;;;;5050149;28;20302;-82
2022/09/18 11:03:23;;;;;;;6.33;1.60;;;19.10;93.10;;;;;;5050187;28;20239;-79
2022/09/18 11:05:57;;;;;;;5.80;1.17;;;18.50;94.10;;;;;;5046766;28;20236;-79
2022/09/18 11:08:29;;;;;;;5.00;1.43;;;17.70;94.20;;;;;;5051778;28;20219;-80
2022/09/18 11:11:03;;;;;;;4.47;1.30;;;16.90;95.20;;;;;;5049382;28;20777;-80
2022/09/18 11:13:34;;;;;;;5.40;1.40;;;16.00;96.20;;;;;;5049403;28;20239;-80
2022/09/18 11:16:04;;;;;;;1.87;0.93;;;15.20;97.30;;;;;;5043274;28;20252;-79
2022/09/18 11:18:32;;;;;;;3.10;1.30;;;14.50;98.20;;;;;;5047611;28;20271;-80
2022/09/18 11:21:05;;;;;;;4.10;2.00;;;13.90;99.20;;;;;;5048995;28;20263;-79
2022/09/18 11:23:34;;;;;;;6.93;1.40;;;13.40;99.90;;;;;;5060547;28;20228;-79
2022/09/18 11:26:18;;;;;;;74.27;5.63;;;13.10;99.90;;;;;;5059840;28;20232;-79
2022/09/18 11:29:02;;;;;;;4.50;1.20;;;13.00;99.90;;;;;;5045305;28;20234;-79
2022/09/18 11:31:51;;;;;;;5.70;1.40;;;13.00;99.90;;;;;;5044873;28;20261;-79
2022/09/18 11:34:28;;;;;;;6.13;1.57;;;13.20;99.90;;;;;;5045166;28;20598;-79
2022/09/18 11:36:59;;;;;;;9.20;1.40;;;13.50;99.90;;;;;;5045797;28;20241;-78
2022/09/18 11:39:33;;;;;;;4.87;1.27;;;13.80;99.90;;;;;;5045386;28;20277;-79
2022/09/18 11:42:07;;;;;;;3.10;1.07;;;14.10;99.90;;;;;;5080004;22;20224;-92
2022/09/18 11:44:35;;;;;;;2.90;1.10;;;14.40;99.90;;;;;;5083947;28;20236;-92
2022/09/18 11:47:19;;;;;;;3.73;1.27;;;14.80;99.90;;;;;;5092618;28;20218;-92
2022/09/18 11:49:49;;;;;;;2.73;0.90;;;15.00;99.90;;;;;;5088664;28;20235;-91
2022/09/18 11:52:23;;;;;;;2.33;0.80;;;15.30;99.90;;;;;;5109679;28;20217;-92
2022/09/18 11:55:06;;;;;;;3.80;0.97;;;15.50;99.90;;;;;;5106753;27;20223;-92
2022/09/18 11:57:38;;;;;;;3.47;0.93;;;15.60;99.90;;;;;;5107938;28;20228;-93
2022/09/18 12:00:12;;;;;;;4.80;1.20;;;15.60;99.90;;;;;;5108468;28;20245;-91
2022/09/18 12:02:48;;;;;;;4.87;1.33;;;15.50;98.90;;;;;;5105441;27;20700;-93
2022/09/18 12:05:22;;;;;;;9.53;1.50;;;15.20;98.70;;;;;;5098961;28;20308;-91
2022/09/18 12:07:59;;;;;;;3.80;1.37;;;14.80;98.60;;;;;;5120193;28;20306;-93
2022/09/18 12:10:38;;;;;;;3.53;1.30;;;14.30;99.10;;;;;;5116231;28;20218;-93
2022/09/18 12:13:22;;;;;;;5.77;1.30;;;13.70;99.90;;;;;;5112505;28;20226;-92
2022/09/18 12:15:55;;;;;;;5.77;1.47;;;13.10;99.90;;;;;;5111155;28;20616;-91
2022/09/18 12:18:28;;;;;;;6.13;1.30;;;12.70;99.90;;;;;;5121145;27;20206;-91
2022/09/18 12:20:59;;;;;;;3.93;1.13;;;12.40;99.90;;;;;;5106199;28;20780;-92
2022/09/18 12:23:28;;;;;;;4.63;1.30;;;12.20;99.90;;;;;;5090854;28;20202;-93
2022/09/18 12:26:08;;;;;;;5.27;1.30;;;12.10;99.90;;;;;;5112879;28;20243;-95
2022/09/18 12:28:53;;;;;;;4.53;1.20;;;12.10;99.90;;;;;;5108615;28;20232;-95
2022/09/18 12:31:30;;;;;;;4.27;0.90;;;12.00;99.90;;;;;;5071520;28;20233;-95
2022/09/18 12:34:03;;;;;;;7.17;1.37;;;12.00;99.90;;;;;;5107788;27;20254;-95
2022/09/18 12:37:06;;;;;;;5.90;1.47;;;12.00;99.90;;;;;;5105408;27;20274;-96
2022/09/18 12:40:02;;;;;;;5.27;1.47;;;12.20;99.90;;;;;;5096080;28;20217;-95
2022/09/18 12:42:47;;;;;;;7.00;1.20;;;12.50;99.90;;;;;;5107594;28;20219;-96
2022/09/18 12:45:46;;;;;;;4.07;1.30;;;12.90;99.90;;;;;;5109871;28;20216;-95
2022/09/18 12:48:53;;;;;;;3.90;1.47;;;13.00;99.90;;;;;;5111198;27;20237;-96
2022/09/18 12:51:33;;;;;;;6.60;1.40;;;13.20;99.90;;;;;;5127693;27;20218;-95
2022/09/18 12:54:27;;;;;;;4.70;1.20;;;13.30;99.90;;;;;;5110001;28;20212;-96
2022/09/18 12:57:13;;;;;;;6.83;1.37;;;13.40;99.90;;;;;;5103925;28;20220;-95
2022/09/18 12:59:51;;;;;;;3.57;1.00;;;13.40;99.90;;;;;;5112101;28;20287;-95
2022/09/18 13:02:39;;;;;;;5.03;1.23;;;13.40;99.90;;;;;;5109926;28;20219;-94
2022/09/18 13:05:13;;;;;;;2.53;0.87;;;13.20;99.90;;;;;;5102839;28;20250;-94
2022/09/18 13:07:45;;;;;;;4.27;1.33;;;13.10;99.90;;;;;;5112036;28;20235;-95
2022/09/18 13:10:19;;;;;;;4.60;1.27;;;13.00;99.90;;;;;;5101881;28;20595;-95
2022/09/18 13:12:59;;;;;;;5.03;0.80;;;12.80;99.90;;;;;;5131746;27;20260;-96
2022/09/18 13:15:33;;;;;;;2.90;1.00;;;12.60;99.90;;;;;;5132732;27;20214;-95
2022/09/18 13:18:11;;;;;;;3.53;1.20;;;12.60;99.90;;;;;;5117616;28;20231;-93
2022/09/18 13:20:43;;;;;;;4.10;1.20;;;12.40;99.90;;;;;;5116093;28;20230;-93
2022/09/18 13:23:17;;;;;;;5.87;1.30;;;12.20;99.90;;;;;;5113168;27;20230;-94
2022/09/18 13:25:48;;;;;;;4.83;1.40;;;12.30;99.90;;;;;;5117045;27;20323;-93